sensor_id;sensor_type;location;lat;lon;timestamp;pressure;altitude;pressure_sealevel;temperature;humidity
64668;BME280;51077;42.716;23.344;2023-11-21T00:02:06;95218.09;;;8.86;50.05
64668;BME280;51077;42.716;23.344;2023-11-21T00:04:32;95209.13;;;8.85;50.01
64668;BME280;51077;42.716;23.344;2023-11-21T00:06:58;95214.63;;;8.85;50.05
64668;BME280;51077;42.716;23.344;2023-11-21T00:09:23;95214.63;;;8.85;50.17
64668;BME280;51077;42.716;23.344;2023-11-21T00:11:49;95216.63;;;8.85;50.16
64668;BME280;51077;42.716;23.344;2023-11-21T00:14:14;95210.88;;;8.82;50.15
64668;BME280;51077;42.716;23.344;2023-11-21T00:23:24;95222.84;;;8.79;50.03
64668;BME280;51077;42.716;23.344;2023-11-21T00:25:49;95217.38;;;8.79;50.12
64668;BME280;51077;42.716;23.344;2023-11-21T00:28:15;95211.13;;;8.79;49.98
64668;BME280;51077;42.716;23.344;2023-11-21T00:30:41;95213.88;;;8.79;50.19
64668;BME280;51077;42.716;23.344;2023-11-21T00:33:07;95202.69;;;8.77;50.31
64668;BME280;51077;42.716;23.344;2023-11-21T00:35:32;95208.91;;;8.77;50.09
64668;BME280;51077;42.716;23.344;2023-11-21T00:37:57;95203.94;;;8.76;50.16
64668;BME280;51077;42.716;23.344;2023-11-21T00:40:23;95210.16;;;8.76;50.13
64668;BME280;51077;42.716;23.344;2023-11-21T00:42:50;95211.41;;;8.75;50.20
64668;BME280;51077;42.716;23.344;2023-11-21T00:45:15;95220.09;;;8.74;50.28
64668;BME280;51077;42.716;23.344;2023-11-21T00:47:41;95213.16;;;8.73;50.21
64668;BME280;51077;42.716;23.344;2023-11-21T00:50:08;95217.38;;;8.74;50.24
64668;BME280;51077;42.716;23.344;2023-11-21T00:52:33;95214.41;;;8.72;50.31
64668;BME280;51077;42.716;23.344;2023-11-21T00:54:59;95203.44;;;8.72;50.26
64668;BME280;51077;42.716;23.344;2023-11-21T00:57:26;95212.13;;;8.70;50.40
64668;BME280;51077;42.716;23.344;2023-11-21T00:59:51;95205.19;;;8.69;50.35
64668;BME280;51077;42.716;23.344;2023-11-21T01:02:17;95202.69;;;8.66;50.08
64668;BME280;51077;42.716;23.344;2023-11-21T01:04:42;95202.69;;;8.66;50.33
64668;BME280;51077;42.716;23.344;2023-11-21T01:07:08;95195.00;;;8.64;50.43
64668;BME280;51077;42.716;23.344;2023-11-21T01:09:34;95191.78;;;8.60;50.34
64668;BME280;51077;42.716;23.344;2023-11-21T01:12:00;95191.53;;;8.58;50.36
64668;BME280;51077;42.716;23.344;2023-11-21T01:14:26;95193.28;;;8.55;50.58
64668;BME280;51077;42.716;23.344;2023-11-21T01:16:52;95189.53;;;8.53;50.58
64668;BME280;51077;42.716;23.344;2023-11-21T01:19:17;95197.50;;;8.51;50.65
64668;BME280;51077;42.716;23.344;2023-11-21T01:21:43;95200.00;;;8.49;50.57
64668;BME280;51077;42.716;23.344;2023-11-21T01:24:08;95203.75;;;8.46;50.69
64668;BME280;51077;42.716;23.344;2023-11-21T01:26:34;95201.47;;;8.44;50.87
64668;BME280;51077;42.716;23.344;2023-11-21T01:28:59;95198.53;;;8.42;50.51
64668;BME280;51077;42.716;23.344;2023-11-21T01:31:25;95198.53;;;8.42;50.65
64668;BME280;51077;42.716;23.344;2023-11-21T01:33:54;95200.25;;;8.40;51.02
64668;BME280;51077;42.716;23.344;2023-11-21T01:36:20;95195.28;;;8.38;50.83
64668;BME280;51077;42.716;23.344;2023-11-21T01:38:46;95196.25;;;8.35;50.69
64668;BME280;51077;42.716;23.344;2023-11-21T01:41:13;95201.47;;;8.33;50.55
64668;BME280;51077;42.716;23.344;2023-11-21T01:43:39;95202.72;;;8.32;51.21
64668;BME280;51077;42.716;23.344;2023-11-21T01:46:05;95206.47;;;8.29;50.59
64668;BME280;51077;42.716;23.344;2023-11-21T01:48:31;95198.75;;;8.27;50.77
64668;BME280;51077;42.716;23.344;2023-11-21T01:50:58;95184.81;;;8.25;50.90
64668;BME280;51077;42.716;23.344;2023-11-21T01:53:27;95192.53;;;8.21;50.92
64668;BME280;51077;42.716;23.344;2023-11-21T01:55:55;95192.28;;;8.19;50.88
64668;BME280;51077;42.716;23.344;2023-11-21T01:58:21;95186.56;;;8.17;51.18
64668;BME280;51077;42.716;23.344;2023-11-21T02:00:47;95199.50;;;8.17;50.85
64668;BME280;51077;42.716;23.344;2023-11-21T02:03:16;95195.00;;;8.14;51.10
64668;BME280;51077;42.716;23.344;2023-11-21T02:05:41;95190.78;;;8.13;50.93
64668;BME280;51077;42.716;23.344;2023-11-21T02:08:07;95193.28;;;8.11;51.11
64668;BME280;51077;42.716;23.344;2023-11-21T02:10:34;95181.34;;;8.08;51.25
64668;BME280;51077;42.716;23.344;2023-11-21T02:13:02;95183.34;;;8.07;50.97
64668;BME280;51077;42.716;23.344;2023-11-21T02:15:28;95187.06;;;8.04;51.40
64668;BME280;51077;42.716;23.344;2023-11-21T02:17:54;95188.31;;;8.03;51.05
64668;BME280;51077;42.716;23.344;2023-11-21T02:20:23;95188.31;;;8.03;51.37
64668;BME280;51077;42.716;23.344;2023-11-21T02:22:54;95186.09;;;8.02;51.17
64668;BME280;51077;42.716;23.344;2023-11-21T02:25:30;95185.06;;;7.99;50.91
64668;BME280;51077;42.716;23.344;2023-11-21T02:28:04;95186.31;;;7.98;51.49
64668;BME280;51077;42.716;23.344;2023-11-21T02:30:31;95185.81;;;7.94;51.21
64668;BME280;51077;42.716;23.344;2023-11-21T02:32:57;95181.09;;;7.95;51.18
64668;BME280;51077;42.716;23.344;2023-11-21T02:35:23;95183.59;;;7.93;51.25
64668;BME280;51077;42.716;23.344;2023-11-21T02:37:51;95179.34;;;7.92;51.24
64668;BME280;51077;42.716;23.344;2023-11-21T02:40:16;95176.63;;;7.92;51.49
64668;BME280;51077;42.716;23.344;2023-11-21T02:42:46;95176.63;;;7.92;51.41
64668;BME280;51077;42.716;23.344;2023-11-21T02:45:24;95178.88;;;7.93;51.48
64668;BME280;51077;42.716;23.344;2023-11-21T02:47:49;95179.34;;;7.92;51.39
64668;BME280;51077;42.716;23.344;2023-11-21T02:50:15;95178.59;;;7.91;51.26
64668;BME280;51077;42.716;23.344;2023-11-21T02:52:40;95174.38;;;7.90;51.62
64668;BME280;51077;42.716;23.344;2023-11-21T02:55:06;95179.84;;;7.90;51.81
64668;BME280;51077;42.716;23.344;2023-11-21T02:57:35;95187.81;;;7.88;51.26
64668;BME280;51077;42.716;23.344;2023-11-21T03:00:00;95185.56;;;7.87;51.49
64668;BME280;51077;42.716;23.344;2023-11-21T03:02:26;95186.31;;;7.87;51.42
64668;BME280;51077;42.716;23.344;2023-11-21T03:04:52;95185.56;;;7.87;51.62
64668;BME280;51077;42.716;23.344;2023-11-21T03:07:17;95179.34;;;7.86;51.46
64668;BME280;51077;42.716;23.344;2023-11-21T03:09:47;95177.88;;;7.85;51.63
64668;BME280;51077;42.716;23.344;2023-11-21T03:12:12;95186.81;;;7.86;51.74
64668;BME280;51077;42.716;23.344;2023-11-21T03:14:39;95187.31;;;7.84;51.86
64668;BME280;51077;42.716;23.344;2023-11-21T03:17:05;95186.56;;;7.84;51.59
64668;BME280;51077;42.716;23.344;2023-11-21T03:19:31;95176.38;;;7.84;51.36
64668;BME280;51077;42.716;23.344;2023-11-21T03:21:56;95187.06;;;7.82;51.69
64668;BME280;51077;42.716;23.344;2023-11-21T03:24:21;95188.28;;;7.81;51.50
64668;BME280;51077;42.716;23.344;2023-11-21T03:26:48;95185.31;;;7.79;51.65
64668;BME280;51077;42.716;23.344;2023-11-21T03:29:14;95183.81;;;7.78;51.82
64668;BME280;51077;42.716;23.344;2023-11-21T03:31:40;95185.31;;;7.79;51.46
64668;BME280;51077;42.716;23.344;2023-11-21T03:34:06;95192.00;;;7.78;51.84
64668;BME280;51077;42.716;23.344;2023-11-21T03:36:32;95186.81;;;7.80;51.56
64668;BME280;51077;42.716;23.344;2023-11-21T03:38:57;95181.81;;;7.78;51.56
64668;BME280;51077;42.716;23.344;2023-11-21T03:41:23;95174.88;;;7.77;51.66
64668;BME280;51077;42.716;23.344;2023-11-21T03:43:48;95180.34;;;7.77;51.83
64668;BME280;51077;42.716;23.344;2023-11-21T03:46:14;95181.09;;;7.78;51.66
64668;BME280;51077;42.716;23.344;2023-11-21T03:48:40;95180.34;;;7.77;51.66
64668;BME280;51077;42.716;23.344;2023-11-21T03:51:05;95169.41;;;7.77;51.77
64668;BME280;51077;42.716;23.344;2023-11-21T03:53:32;95169.91;;;7.76;51.98
64668;BME280;51077;42.716;23.344;2023-11-21T03:55:57;95169.91;;;7.76;51.83
64668;BME280;51077;42.716;23.344;2023-11-21T03:58:23;95169.19;;;7.75;51.53
64668;BME280;51077;42.716;23.344;2023-11-21T04:00:48;95161.47;;;7.74;51.47
64668;BME280;51077;42.716;23.344;2023-11-21T04:03:16;95167.66;;;7.74;51.66
64668;BME280;51077;42.716;23.344;2023-11-21T04:05:42;95168.66;;;7.71;51.83
64668;BME280;51077;42.716;23.344;2023-11-21T04:08:07;95168.16;;;7.73;51.53
64668;BME280;51077;42.716;23.344;2023-11-21T04:10:33;95163.69;;;7.70;51.59
64668;BME280;51077;42.716;23.344;2023-11-21T04:12:58;95160.22;;;7.69;51.51
64668;BME280;51077;42.716;23.344;2023-11-21T04:15:25;95154.00;;;7.69;51.60
64668;BME280;51077;42.716;23.344;2023-11-21T04:17:51;95158.72;;;7.68;52.15
64668;BME280;51077;42.716;23.344;2023-11-21T04:20:17;95163.44;;;7.68;51.84
64668;BME280;51077;42.716;23.344;2023-11-21T04:22:44;95166.19;;;7.68;51.58
64668;BME280;51077;42.716;23.344;2023-11-21T04:25:11;95171.38;;;7.66;51.65
64668;BME280;51077;42.716;23.344;2023-11-21T04:27:38;95168.66;;;7.66;51.83
64668;BME280;51077;42.716;23.344;2023-11-21T04:30:05;95164.94;;;7.63;51.72
64668;BME280;51077;42.716;23.344;2023-11-21T04:32:30;95167.66;;;7.63;51.61
64668;BME280;51077;42.716;23.344;2023-11-21T04:34:56;95151.75;;;7.62;52.01
64668;BME280;51077;42.716;23.344;2023-11-21T04:37:21;95161.94;;;7.61;51.75
64668;BME280;51077;42.716;23.344;2023-11-21T04:39:50;95158.97;;;7.59;51.75
64668;BME280;51077;42.716;23.344;2023-11-21T04:42:15;95160.94;;;7.59;52.01
64668;BME280;51077;42.716;23.344;2023-11-21T04:44:45;95167.91;;;7.60;52.02
64668;BME280;51077;42.716;23.344;2023-11-21T04:47:11;95163.41;;;7.56;51.75
64668;BME280;51077;42.716;23.344;2023-11-21T04:49:37;95171.63;;;7.56;51.81
64668;BME280;51077;42.716;23.344;2023-11-21T04:52:03;95170.63;;;7.54;52.06
64668;BME280;51077;42.716;23.344;2023-11-21T04:54:30;95177.56;;;7.55;51.84
64668;BME280;51077;42.716;23.344;2023-11-21T04:56:56;95179.81;;;7.56;52.84
64668;BME280;51077;42.716;23.344;2023-11-21T04:59:22;95173.59;;;7.62;55.25
64668;BME280;51077;42.716;23.344;2023-11-21T05:01:52;95168.41;;;7.64;55.57
64668;BME280;51077;42.716;23.344;2023-11-21T05:04:19;95168.41;;;7.64;55.35
64668;BME280;51077;42.716;23.344;2023-11-21T05:06:44;95172.38;;;7.63;55.36
64668;BME280;51077;42.716;23.344;2023-11-21T05:09:10;95170.41;;;7.63;55.54
64668;BME280;51077;42.716;23.344;2023-11-21T05:11:37;95161.47;;;7.63;55.25
64668;BME280;51077;42.716;23.344;2023-11-21T05:14:04;95161.47;;;7.63;54.86
64668;BME280;51077;42.716;23.344;2023-11-21T05:16:30;95162.94;;;7.64;55.09
64668;BME280;51077;42.716;23.344;2023-11-21T05:18:56;95149.28;;;7.64;55.15
64668;BME280;51077;42.716;23.344;2023-11-21T05:21:26;95161.69;;;7.65;54.48
64668;BME280;51077;42.716;23.344;2023-11-21T05:23:52;95155.50;;;7.64;54.76
64668;BME280;51077;42.716;23.344;2023-11-21T05:26:17;95154.25;;;7.65;54.80
64668;BME280;51077;42.716;23.344;2023-11-21T05:28:43;95171.38;;;7.66;54.23
64668;BME280;51077;42.716;23.344;2023-11-21T05:31:08;95174.88;;;7.66;54.30
64668;BME280;51077;42.716;23.344;2023-11-21T05:33:34;95179.09;;;7.67;54.04
64668;BME280;51077;42.716;23.344;2023-11-21T05:35:59;95176.38;;;7.67;54.34
64668;BME280;51077;42.716;23.344;2023-11-21T05:38:25;95173.88;;;7.69;54.06
64668;BME280;51077;42.716;23.344;2023-11-21T05:40:51;95170.41;;;7.69;53.81
64668;BME280;51077;42.716;23.344;2023-11-21T05:43:16;95180.34;;;7.72;53.58
64668;BME280;51077;42.716;23.344;2023-11-21T05:45:42;95184.81;;;7.75;53.90
64668;BME280;51077;42.716;23.344;2023-11-21T05:48:07;95185.56;;;7.75;53.69
64668;BME280;51077;42.716;23.344;2023-11-21T05:50:33;95175.63;;;7.78;53.61
64668;BME280;51077;42.716;23.344;2023-11-21T05:52:58;95177.09;;;7.79;53.25
64668;BME280;51077;42.716;23.344;2023-11-21T05:55:28;95183.56;;;7.81;53.24
64668;BME280;51077;42.716;23.344;2023-11-21T05:57:54;95172.13;;;7.83;53.32
64668;BME280;51077;42.716;23.344;2023-11-21T06:00:19;95184.81;;;7.86;53.47
64668;BME280;51077;42.716;23.344;2023-11-21T06:02:45;95186.31;;;7.87;53.19
64668;BME280;51077;42.716;23.344;2023-11-21T06:05:11;95176.63;;;7.92;52.92
64668;BME280;51077;42.716;23.344;2023-11-21T06:07:37;95183.59;;;7.93;53.01
64668;BME280;51077;42.716;23.344;2023-11-21T06:10:04;95177.88;;;7.96;52.84
64668;BME280;51077;42.716;23.344;2023-11-21T06:12:32;95180.34;;;8.00;52.64
64668;BME280;51077;42.716;23.344;2023-11-21T06:15:02;95189.78;;;8.04;52.96
64668;BME280;51077;42.716;23.344;2023-11-21T06:17:30;95183.56;;;8.10;52.38
64668;BME280;51077;42.716;23.344;2023-11-21T06:19:56;95188.31;;;8.15;52.44
64668;BME280;51077;42.716;23.344;2023-11-21T06:22:21;95193.03;;;8.20;52.13
64668;BME280;51077;42.716;23.344;2023-11-21T06:24:47;95197.50;;;8.28;52.16
64668;BME280;51077;42.716;23.344;2023-11-21T06:27:12;95199.72;;;8.36;51.96
64668;BME280;51077;42.716;23.344;2023-11-21T06:29:38;95201.25;;;8.42;51.76
64668;BME280;51077;42.716;23.344;2023-11-21T06:32:04;95205.22;;;8.52;51.39
64668;BME280;51077;42.716;23.344;2023-11-21T06:34:30;95208.69;;;8.64;51.05
64668;BME280;51077;42.716;23.344;2023-11-21T06:36:56;95208.91;;;8.77;50.82
64668;BME280;51077;42.716;23.344;2023-11-21T06:39:21;95206.38;;;8.91;50.61
64668;BME280;51077;42.716;23.344;2023-11-21T06:41:49;95212.56;;;9.08;50.23
64668;BME280;51077;42.716;23.344;2023-11-21T06:44:15;95213.72;;;9.29;50.09
64668;BME280;51077;42.716;23.344;2023-11-21T06:46:40;95210.38;;;9.53;49.58
64668;BME280;51077;42.716;23.344;2023-11-21T06:49:08;95215.75;;;9.76;49.28
64668;BME280;51077;42.716;23.344;2023-11-21T06:51:33;95210.09;;;9.98;48.89
64668;BME280;51077;42.716;23.344;2023-11-21T06:53:59;95208.69;;;10.22;48.44
64668;BME280;51077;42.716;23.344;2023-11-21T06:56:24;95204.25;;;10.49;48.03
64668;BME280;51077;42.716;23.344;2023-11-21T06:58:50;95211.72;;;10.78;47.36
64668;BME280;51077;42.716;23.344;2023-11-21T07:01:19;95208.97;;;11.03;47.08
64668;BME280;51077;42.716;23.344;2023-11-21T07:03:44;95211.75;;;11.22;46.57
64668;BME280;51077;42.716;23.344;2023-11-21T07:06:10;95218.47;;;11.45;46.13
64668;BME280;51077;42.716;23.344;2023-11-21T07:08:36;95217.19;;;11.65;45.72
64668;BME280;51077;42.716;23.344;2023-11-21T07:11:03;95213.66;;;11.89;45.29
64668;BME280;51077;42.716;23.344;2023-11-21T07:13:29;95204.56;;;12.13;45.09
64668;BME280;51077;42.716;23.344;2023-11-21T07:15:55;95204.88;;;12.42;44.42
64668;BME280;51077;42.716;23.344;2023-11-21T07:18:21;95201.31;;;12.60;44.05
64668;BME280;51077;42.716;23.344;2023-11-21T07:20:46;95198.25;;;12.77;43.83
64668;BME280;51077;42.716;23.344;2023-11-21T07:23:11;95203.56;;;12.88;43.57
64668;BME280;51077;42.716;23.344;2023-11-21T07:25:37;95198.81;;;13.02;43.17
64668;BME280;51077;42.716;23.344;2023-11-21T07:28:02;95209.50;;;13.19;43.04
64668;BME280;51077;42.716;23.344;2023-11-21T07:30:28;95210.47;;;13.35;42.74
64668;BME280;51077;42.716;23.344;2023-11-21T07:32:53;95214.19;;;13.50;42.56
64668;BME280;51077;42.716;23.344;2023-11-21T07:35:19;95215.84;;;13.67;42.21
64668;BME280;51077;42.716;23.344;2023-11-21T07:37:44;95218.47;;;13.86;42.17
64668;BME280;51077;42.716;23.344;2023-11-21T07:40:10;95213.19;;;14.08;41.75
64668;BME280;51077;42.716;23.344;2023-11-21T07:42:37;95204.94;;;14.29;41.69
64668;BME280;51077;42.716;23.344;2023-11-21T07:45:05;95205.47;;;14.49;41.28
64668;BME280;51077;42.716;23.344;2023-11-21T07:47:32;95203.78;;;14.67;40.91
64668;BME280;51077;42.716;23.344;2023-11-21T07:50:00;95203.22;;;14.89;40.71
64668;BME280;51077;42.716;23.344;2023-11-21T07:52:25;95197.69;;;15.18;40.25
64668;BME280;51077;42.716;23.344;2023-11-21T07:54:51;95193.91;;;15.36;40.10
64668;BME280;51077;42.716;23.344;2023-11-21T07:57:16;95198.25;;;15.52;39.68
64668;BME280;51077;42.716;23.344;2023-11-21T07:59:41;95189.66;;;15.71;39.50
64668;BME280;51077;42.716;23.344;2023-11-21T08:02:07;95191.00;;;15.78;39.41
64668;BME280;51077;42.716;23.344;2023-11-21T08:04:33;95187.50;;;15.77;39.22
64668;BME280;51077;42.716;23.344;2023-11-21T08:07:00;95186.75;;;15.77;39.18
64668;BME280;51077;42.716;23.344;2023-11-21T08:09:26;95174.38;;;15.78;39.20
64668;BME280;51077;42.716;23.344;2023-11-21T08:11:52;95182.47;;;15.76;39.35
64668;BME280;51077;42.716;23.344;2023-11-21T08:14:18;95172.00;;;15.82;39.33
64668;BME280;51077;42.716;23.344;2023-11-21T08:16:44;95174.78;;;15.97;39.02
64668;BME280;51077;42.716;23.344;2023-11-21T08:19:10;95177.41;;;16.11;38.83
64668;BME280;51077;42.716;23.344;2023-11-21T08:21:36;95183.91;;;16.21;38.70
64668;BME280;51077;42.716;23.344;2023-11-21T08:24:03;95181.16;;;16.28;38.56
64668;BME280;51077;42.716;23.344;2023-11-21T08:26:29;95177.81;;;16.30;38.58
64668;BME280;51077;42.716;23.344;2023-11-21T08:28:55;95183.00;;;16.33;38.31
64668;BME280;51077;42.716;23.344;2023-11-21T08:31:28;95180.59;;;16.38;38.08
64668;BME280;51077;42.716;23.344;2023-11-21T08:33:54;95184.50;;;16.42;38.32
64668;BME280;51077;42.716;23.344;2023-11-21T08:36:21;95179.88;;;16.52;38.25
64668;BME280;51077;42.716;23.344;2023-11-21T08:38:49;95182.44;;;16.66;38.01
64668;BME280;51077;42.716;23.344;2023-11-21T08:41:17;95188.03;;;16.81;37.79
64668;BME280;51077;42.716;23.344;2023-11-21T08:43:43;95183.56;;;16.93;37.87
64668;BME280;51077;42.716;23.344;2023-11-21T08:46:09;95178.00;;;17.01;37.62
64668;BME280;51077;42.716;23.344;2023-11-21T08:48:37;95171.34;;;17.12;37.37
64668;BME280;51077;42.716;23.344;2023-11-21T08:51:03;95175.00;;;17.22;37.61
64668;BME280;51077;42.716;23.344;2023-11-21T08:53:29;95170.94;;;17.30;37.12
64668;BME280;51077;42.716;23.344;2023-11-21T08:55:56;95169.78;;;17.41;37.03
64668;BME280;51077;42.716;23.344;2023-11-21T08:58:22;95157.16;;;17.55;36.90
64668;BME280;51077;42.716;23.344;2023-11-21T09:00:47;95150.97;;;17.72;36.66
64668;BME280;51077;42.716;23.344;2023-11-21T09:03:13;95152.63;;;17.83;36.56
64668;BME280;51077;42.716;23.344;2023-11-21T09:05:39;95144.78;;;17.89;36.20
64668;BME280;51077;42.716;23.344;2023-11-21T09:08:04;95138.50;;;17.89;36.47
64668;BME280;51077;42.716;23.344;2023-11-21T09:10:30;95130.78;;;17.79;36.43
64668;BME280;51077;42.716;23.344;2023-11-21T09:12:57;95125.25;;;17.72;36.58
64668;BME280;51077;42.716;23.344;2023-11-21T09:15:24;95118.66;;;17.59;36.75
64668;BME280;51077;42.716;23.344;2023-11-21T09:17:50;95100.59;;;17.43;37.03
64668;BME280;51077;42.716;23.344;2023-11-21T09:20:16;95097.88;;;17.28;36.99
64668;BME280;51077;42.716;23.344;2023-11-21T09:22:41;95093.50;;;17.17;37.35
64668;BME280;51077;42.716;23.344;2023-11-21T09:25:07;95095.75;;;17.03;37.41
64668;BME280;51077;42.716;23.344;2023-11-21T09:27:34;95088.94;;;16.97;37.74
64668;BME280;51077;42.716;23.344;2023-11-21T09:30:01;95085.06;;;16.92;37.78
64668;BME280;51077;42.716;23.344;2023-11-21T09:32:27;95086.94;;;16.90;37.72
64668;BME280;51077;42.716;23.344;2023-11-21T09:34:52;95062.72;;;16.90;37.72
64668;BME280;51077;42.716;23.344;2023-11-21T09:37:20;95054.03;;;16.94;37.56
64668;BME280;51077;42.716;23.344;2023-11-21T09:39:46;95046.22;;;17.00;37.65
64668;BME280;51077;42.716;23.344;2023-11-21T09:42:23;95053.34;;;17.18;37.24
64668;BME280;51077;42.716;23.344;2023-11-21T09:47:26;95041.69;;;17.60;36.63
64668;BME280;51077;42.716;23.344;2023-11-21T09:49:54;95025.69;;;17.76;36.30
64668;BME280;51077;42.716;23.344;2023-11-21T09:52:26;95019.69;;;17.87;36.31
64668;BME280;51077;42.716;23.344;2023-11-21T09:54:52;95007.72;;;18.02;35.91
64668;BME280;51077;42.716;23.344;2023-11-21T09:57:20;95009.31;;;18.13;35.59
64668;BME280;51077;42.716;23.344;2023-11-21T09:59:46;95004.38;;;18.28;35.64
64668;BME280;51077;42.716;23.344;2023-11-21T10:02:16;95006.41;;;18.45;35.17
64668;BME280;51077;42.716;23.344;2023-11-21T10:04:44;95001.69;;;18.55;34.98
64668;BME280;51077;42.716;23.344;2023-11-21T10:07:11;94995.97;;;18.71;34.87
64668;BME280;51077;42.716;23.344;2023-11-21T10:09:39;94997.28;;;18.87;34.52
64668;BME280;51077;42.716;23.344;2023-11-21T10:12:05;94995.38;;;19.07;34.22
64668;BME280;51077;42.716;23.344;2023-11-21T10:14:34;95005.47;;;19.29;33.94
64668;BME280;51077;42.716;23.344;2023-11-21T10:17:02;94984.09;;;19.59;33.40
64668;BME280;51077;42.716;23.344;2023-11-21T10:19:29;94991.13;;;19.87;33.21
64668;BME280;51077;42.716;23.344;2023-11-21T10:21:55;94991.47;;;20.11;32.83
64668;BME280;51077;42.716;23.344;2023-11-21T10:24:22;94976.28;;;20.31;32.78
64668;BME280;51077;42.716;23.344;2023-11-21T10:26:48;94973.91;;;20.37;32.58
64668;BME280;51077;42.716;23.344;2023-11-21T10:29:14;94970.28;;;20.34;32.67
64668;BME280;51077;42.716;23.344;2023-11-21T10:31:43;94965.00;;;20.29;32.67
64668;BME280;51077;42.716;23.344;2023-11-21T10:34:13;94960.28;;;20.22;32.81
64668;BME280;51077;42.716;23.344;2023-11-21T10:36:40;94960.69;;;20.08;32.76
64668;BME280;51077;42.716;23.344;2023-11-21T10:39:05;94957.59;;;19.95;32.80
64668;BME280;51077;42.716;23.344;2023-11-21T10:41:31;94946.53;;;19.77;33.24
64668;BME280;51077;42.716;23.344;2023-11-21T10:43:57;94953.66;;;19.61;33.61
64668;BME280;51077;42.716;23.344;2023-11-21T10:46:22;94954.69;;;19.39;33.77
64668;BME280;51077;42.716;23.344;2023-11-21T10:48:54;94942.72;;;19.19;34.14
64668;BME280;51077;42.716;23.344;2023-11-21T10:51:21;94936.88;;;18.97;34.50
64668;BME280;51077;42.716;23.344;2023-11-21T10:53:47;94935.88;;;18.75;34.77
64668;BME280;51077;42.716;23.344;2023-11-21T10:56:14;94939.06;;;18.54;35.20
64668;BME280;51077;42.716;23.344;2023-11-21T10:58:45;94937.25;;;18.32;35.53
64668;BME280;51077;42.716;23.344;2023-11-21T11:01:11;94925.25;;;18.12;35.87
64668;BME280;51077;42.716;23.344;2023-11-21T11:03:37;94925.63;;;17.91;36.19
64668;BME280;51077;42.716;23.344;2023-11-21T11:06:04;94922.63;;;17.72;36.40
64668;BME280;51077;42.716;23.344;2023-11-21T11:08:33;94927.38;;;17.54;36.65
64668;BME280;51077;42.716;23.344;2023-11-21T11:10:59;94920.31;;;17.36;36.94
64668;BME280;51077;42.716;23.344;2023-11-21T11:13:25;94916.91;;;17.20;37.25
64668;BME280;51077;42.716;23.344;2023-11-21T11:15:51;94914.97;;;17.05;37.58
64668;BME280;51077;42.716;23.344;2023-11-21T11:18:22;94903.97;;;16.90;37.64
64668;BME280;51077;42.716;23.344;2023-11-21T11:20:49;94903.66;;;16.78;37.83
64668;BME280;51077;42.716;23.344;2023-11-21T11:29:36;94894.38;;;16.43;38.38
64668;BME280;51077;42.716;23.344;2023-11-21T11:32:23;94889.44;;;16.33;38.37
64668;BME280;51077;42.716;23.344;2023-11-21T11:35:24;94884.28;;;16.22;38.70
64668;BME280;51077;42.716;23.344;2023-11-21T11:37:52;94874.53;;;16.14;38.88
64668;BME280;51077;42.716;23.344;2023-11-21T11:40:18;94875.84;;;16.05;38.91
64668;BME280;51077;42.716;23.344;2023-11-21T11:42:58;94876.41;;;15.96;39.06
64668;BME280;51077;42.716;23.344;2023-11-21T11:45:32;94880.50;;;15.87;39.09
64668;BME280;51077;42.716;23.344;2023-11-21T11:48:00;94883.84;;;15.78;39.35
64668;BME280;51077;42.716;23.344;2023-11-21T11:50:26;94894.75;;;15.68;39.47
64668;BME280;51077;42.716;23.344;2023-11-21T11:52:53;94900.25;;;15.61;39.67
64668;BME280;51077;42.716;23.344;2023-11-21T11:55:24;94898.78;;;15.52;39.78
64668;BME280;51077;42.716;23.344;2023-11-21T11:57:54;94886.41;;;15.45;40.10
64668;BME280;51077;42.716;23.344;2023-11-21T12:00:43;94885.69;;;15.37;40.29
64668;BME280;51077;42.716;23.344;2023-11-21T12:03:09;94880.69;;;15.28;40.35
64668;BME280;51077;42.716;23.344;2023-11-21T12:05:35;94877.94;;;15.20;40.56
64668;BME280;51077;42.716;23.344;2023-11-21T12:08:04;94889.00;;;15.13;40.67
64668;BME280;51077;42.716;23.344;2023-11-21T12:10:33;94889.72;;;15.05;40.76
64668;BME280;51077;42.716;23.344;2023-11-21T12:13:00;94890.44;;;14.98;41.10
64668;BME280;51077;42.716;23.344;2023-11-21T12:15:26;94889.69;;;14.90;41.48
64668;BME280;51077;42.716;23.344;2023-11-21T12:17:55;94890.41;;;14.83;41.56
64668;BME280;51077;42.716;23.344;2023-11-21T12:20:24;94879.34;;;14.75;41.85
64668;BME280;51077;42.716;23.344;2023-11-21T12:22:52;94878.03;;;14.69;42.05
64668;BME280;51077;42.716;23.344;2023-11-21T12:25:21;94878.75;;;14.62;42.32
64668;BME280;51077;42.716;23.344;2023-11-21T12:27:51;94873.97;;;14.54;42.55
64668;BME280;51077;42.716;23.344;2023-11-21T12:30:19;94879.63;;;14.49;42.86
64668;BME280;51077;42.716;23.344;2023-11-21T12:32:51;94876.84;;;14.41;43.14
64668;BME280;51077;42.716;23.344;2023-11-21T12:35:18;94882.50;;;14.36;43.27
64668;BME280;51077;42.716;23.344;2023-11-21T12:37:48;94883.97;;;14.29;43.55
64668;BME280;51077;42.716;23.344;2023-11-21T12:40:14;94885.38;;;14.22;43.62
64668;BME280;51077;42.716;23.344;2023-11-21T12:43:00;94879.81;;;14.15;43.87
64668;BME280;51077;42.716;23.344;2023-11-21T12:45:27;94871.53;;;14.07;44.12
64668;BME280;51077;42.716;23.344;2023-11-21T12:50:28;94860.06;;;13.95;44.53
64668;BME280;51077;42.716;23.344;2023-11-21T12:53:00;94862.44;;;13.91;44.60
64668;BME280;51077;42.716;23.344;2023-11-21T12:55:30;94857.59;;;13.84;45.11
64668;BME280;51077;42.716;23.344;2023-11-21T12:57:56;94851.31;;;13.76;45.11
64668;BME280;51077;42.716;23.344;2023-11-21T13:00:34;94837.88;;;13.72;45.30
64668;BME280;51077;42.716;23.344;2023-11-21T13:03:05;94838.00;;;13.67;45.43
64668;BME280;51077;42.716;23.344;2023-11-21T13:05:38;94831.38;;;13.62;45.68
64668;BME280;51077;42.716;23.344;2023-11-21T13:08:06;94829.16;;;13.61;45.44
64668;BME280;51077;42.716;23.344;2023-11-21T13:10:37;94838.31;;;13.55;46.01
64668;BME280;51077;42.716;23.344;2023-11-21T13:13:06;94835.16;;;13.51;46.10